sensor_id;sensor_type;location;lat;lon;timestamp;pressure;altitude;pressure_sealevel;temperature;humidity
72096;BME280;59968;51.084;16.748;2023-05-17T00:01:52;100313.86;;;11.05;89.24
72096;BME280;59968;51.084;16.748;2023-05-17T00:04:35;100317.55;;;11.09;89.15
72096;BME280;59968;51.084;16.748;2023-05-17T00:07:13;100320.40;;;11.10;89.09
72096;BME280;59968;51.084;16.748;2023-05-17T00:10:25;100329.42;;;11.10;89.07
72096;BME280;59968;51.084;16.748;2023-05-17T00:16:33;100329.19;;;11.04;89.02
72096;BME280;59968;51.084;16.748;2023-05-17T00:19:41;100332.29;;;11.02;89.03
72096;BME280;59968;51.084;16.748;2023-05-17T00:25:56;100339.36;;;11.00;89.12
72096;BME280;59968;51.084;16.748;2023-05-17T00:36:45;100340.19;;;10.93;89.26
72096;BME280;59968;51.084;16.748;2023-05-17T00:39:48;100333.95;;;10.93;89.29
72096;BME280;59968;51.084;16.748;2023-05-17T00:43:16;100332.93;;;10.88;89.50
72096;BME280;59968;51.084;16.748;2023-05-17T00:46:13;100333.23;;;10.87;89.43
72096;BME280;59968;51.084;16.748;2023-05-17T00:49:13;100330.59;;;10.85;89.42
72096;BME280;59968;51.084;16.748;2023-05-17T00:52:56;100328.58;;;10.84;89.45
72096;BME280;59968;51.084;16.748;2023-05-17T00:56:22;100326.77;;;10.85;89.33
72096;BME280;59968;51.084;16.748;2023-05-17T00:59:45;100328.64;;;10.85;89.35
72096;BME280;59968;51.084;16.748;2023-05-17T01:03:29;100323.69;;;10.85;89.24
72096;BME280;59968;51.084;16.748;2023-05-17T01:06:37;100321.66;;;10.87;89.13
72096;BME280;59968;51.084;16.748;2023-05-17T01:09:39;100318.83;;;10.87;89.14
72096;BME280;59968;51.084;16.748;2023-05-17T01:16:39;100327.77;;;10.87;88.96
72096;BME280;59968;51.084;16.748;2023-05-17T01:22:58;100327.02;;;10.87;88.87
72096;BME280;59968;51.084;16.748;2023-05-17T01:29:29;100337.17;;;10.84;89.12
72096;BME280;59968;51.084;16.748;2023-05-17T01:32:29;100339.03;;;10.83;89.15
72096;BME280;59968;51.084;16.748;2023-05-17T01:38:51;100343.73;;;10.82;89.20
72096;BME280;59968;51.084;16.748;2023-05-17T01:49:39;100352.71;;;10.80;89.15
72096;BME280;59968;51.084;16.748;2023-05-17T01:52:47;100352.01;;;10.77;89.21
72096;BME280;59968;51.084;16.748;2023-05-17T01:56:21;100355.47;;;10.75;89.11
72096;BME280;59968;51.084;16.748;2023-05-17T01:59:22;100358.71;;;10.76;88.78
72096;BME280;59968;51.084;16.748;2023-05-17T02:02:17;100356.58;;;10.75;88.38
72096;BME280;59968;51.084;16.748;2023-05-17T02:05:14;100354.81;;;10.74;88.22
72096;BME280;59968;51.084;16.748;2023-05-17T02:08:26;100355.08;;;10.72;87.56
72096;BME280;59968;51.084;16.748;2023-05-17T02:11:23;100358.69;;;10.68;86.52
72096;BME280;59968;51.084;16.748;2023-05-17T02:14:01;100353.69;;;10.62;86.50
72096;BME280;59968;51.084;16.748;2023-05-17T02:16:55;100360.79;;;10.61;86.51
72096;BME280;59968;51.084;16.748;2023-05-17T02:19:46;100366.20;;;10.59;85.84
72096;BME280;59968;51.084;16.748;2023-05-17T02:22:44;100368.92;;;10.56;85.74
72096;BME280;59968;51.084;16.748;2023-05-17T02:26:17;100367.77;;;10.53;85.47
72096;BME280;59968;51.084;16.748;2023-05-17T02:29:24;100362.30;;;10.51;85.09
72096;BME280;59968;51.084;16.748;2023-05-17T02:32:13;100361.92;;;10.49;84.96
72096;BME280;59968;51.084;16.748;2023-05-17T02:35:14;100361.86;;;10.46;84.91
72096;BME280;59968;51.084;16.748;2023-05-17T02:37:46;100367.27;;;10.45;84.57
72096;BME280;59968;51.084;16.748;2023-05-17T02:45:05;100371.63;;;10.37;83.87
72096;BME280;59968;51.084;16.748;2023-05-17T02:51:14;100373.80;;;10.26;83.51
72096;BME280;59968;51.084;16.748;2023-05-17T02:54:39;100374.89;;;10.23;83.14
72096;BME280;59968;51.084;16.748;2023-05-17T02:57:47;100376.36;;;10.20;82.90
72096;BME280;59968;51.084;16.748;2023-05-17T03:01:05;100380.91;;;10.15;82.75
72096;BME280;59968;51.084;16.748;2023-05-17T03:04:03;100386.59;;;10.11;82.38
72096;BME280;59968;51.084;16.748;2023-05-17T03:06:55;100387.72;;;10.07;82.10
72096;BME280;59968;51.084;16.748;2023-05-17T03:10:08;100397.47;;;10.01;81.83
72096;BME280;59968;51.084;16.748;2023-05-17T03:13:20;100401.28;;;9.93;81.34
72096;BME280;59968;51.084;16.748;2023-05-17T03:16:41;100407.16;;;9.88;81.40
72096;BME280;59968;51.084;16.748;2023-05-17T03:19:45;100409.80;;;9.86;81.51
72096;BME280;59968;51.084;16.748;2023-05-17T03:26:05;100416.19;;;9.80;81.10
72096;BME280;59968;51.084;16.748;2023-05-17T03:29:06;100419.50;;;9.76;80.93
72096;BME280;59968;51.084;16.748;2023-05-17T03:32:28;100423.76;;;9.73;81.00
72096;BME280;59968;51.084;16.748;2023-05-17T03:35:03;100426.86;;;9.70;80.55
72096;BME280;59968;51.084;16.748;2023-05-17T03:38:17;100429.48;;;9.68;80.93
72096;BME280;59968;51.084;16.748;2023-05-17T03:41:27;100435.08;;;9.66;80.78
72096;BME280;59968;51.084;16.748;2023-05-17T03:44:50;100436.59;;;9.67;80.81
72096;BME280;59968;51.084;16.748;2023-05-17T03:47:34;100439.48;;;9.68;80.60
72096;BME280;59968;51.084;16.748;2023-05-17T03:50:49;100443.70;;;9.68;80.31
72096;BME280;59968;51.084;16.748;2023-05-17T03:53:44;100447.48;;;9.67;80.37
72096;BME280;59968;51.084;16.748;2023-05-17T03:56:53;100454.23;;;9.68;80.39
72096;BME280;59968;51.084;16.748;2023-05-17T03:59:42;100447.71;;;9.67;79.63
72096;BME280;59968;51.084;16.748;2023-05-17T04:02:18;100447.60;;;9.67;79.80
72096;BME280;59968;51.084;16.748;2023-05-17T04:05:30;100446.41;;;9.68;80.20
72096;BME280;59968;51.084;16.748;2023-05-17T04:08:40;100450.40;;;9.72;79.83
72096;BME280;59968;51.084;16.748;2023-05-17T04:11:21;100454.40;;;9.74;79.87
72096;BME280;59968;51.084;16.748;2023-05-17T04:14:18;100457.16;;;9.75;79.76
72096;BME280;59968;51.084;16.748;2023-05-17T04:17:10;100456.48;;;9.76;79.66
72096;BME280;59968;51.084;16.748;2023-05-17T04:19:58;100466.13;;;9.80;79.95
72096;BME280;59968;51.084;16.748;2023-05-17T04:22:35;100467.91;;;9.82;79.74
72096;BME280;59968;51.084;16.748;2023-05-17T04:25:32;100471.94;;;9.85;79.51
72096;BME280;59968;51.084;16.748;2023-05-17T04:28:09;100476.23;;;9.85;79.04
72096;BME280;59968;51.084;16.748;2023-05-17T04:31:35;100482.52;;;9.85;79.02
72096;BME280;59968;51.084;16.748;2023-05-17T04:34:15;100483.04;;;9.84;78.96
72096;BME280;59968;51.084;16.748;2023-05-17T04:37:11;100486.27;;;9.86;79.29
72096;BME280;59968;51.084;16.748;2023-05-17T04:40:13;100486.87;;;9.90;78.84
72096;BME280;59968;51.084;16.748;2023-05-17T04:43:00;100498.09;;;9.93;78.74
72096;BME280;59968;51.084;16.748;2023-05-17T04:45:45;100500.94;;;9.94;77.94
72096;BME280;59968;51.084;16.748;2023-05-17T04:49:02;100502.48;;;9.92;77.70
72096;BME280;59968;51.084;16.748;2023-05-17T04:51:36;100509.45;;;9.95;78.28
72096;BME280;59968;51.084;16.748;2023-05-17T04:54:23;100510.87;;;9.97;77.85
72096;BME280;59968;51.084;16.748;2023-05-17T04:57:35;100505.83;;;9.97;77.06
72096;BME280;59968;51.084;16.748;2023-05-17T05:06:42;100508.91;;;9.99;76.97
72096;BME280;59968;51.084;16.748;2023-05-17T05:09:52;100513.97;;;9.99;77.24
72096;BME280;59968;51.084;16.748;2023-05-17T05:12:48;100510.50;;;10.02;77.69
72096;BME280;59968;51.084;16.748;2023-05-17T05:15:49;100502.02;;;10.08;77.22
72096;BME280;59968;51.084;16.748;2023-05-17T05:18:36;100506.20;;;10.10;77.01
72096;BME280;59968;51.084;16.748;2023-05-17T05:22:09;100510.39;;;10.13;76.41
72096;BME280;59968;51.084;16.748;2023-05-17T05:24:47;100512.11;;;10.11;75.80
72096;BME280;59968;51.084;16.748;2023-05-17T05:27:48;100504.08;;;10.12;76.19
72096;BME280;59968;51.084;16.748;2023-05-17T05:30:55;100506.48;;;10.17;76.27
72096;BME280;59968;51.084;16.748;2023-05-17T05:33:56;100515.36;;;10.19;75.45
72096;BME280;59968;51.084;16.748;2023-05-17T05:37:12;100526.72;;;10.24;75.48
72096;BME280;59968;51.084;16.748;2023-05-17T05:40:36;100529.25;;;10.23;74.99
72096;BME280;59968;51.084;16.748;2023-05-17T05:43:23;100532.83;;;10.29;75.36
72096;BME280;59968;51.084;16.748;2023-05-17T05:46:04;100533.44;;;10.35;75.33
72096;BME280;59968;51.084;16.748;2023-05-17T05:49:19;100536.09;;;10.41;74.80
72096;BME280;59968;51.084;16.748;2023-05-17T05:52:14;100538.96;;;10.47;75.19
72096;BME280;59968;51.084;16.748;2023-05-17T05:55:25;100544.20;;;10.55;74.86
72096;BME280;59968;51.084;16.748;2023-05-17T05:58:31;100554.40;;;10.61;74.70
72096;BME280;59968;51.084;16.748;2023-05-17T06:01:49;100557.66;;;10.71;74.21
72096;BME280;59968;51.084;16.748;2023-05-17T06:04:59;100561.20;;;10.82;74.66
72096;BME280;59968;51.084;16.748;2023-05-17T06:07:40;100559.60;;;10.92;74.06
72096;BME280;59968;51.084;16.748;2023-05-17T06:10:12;100565.88;;;11.02;74.32
72096;BME280;59968;51.084;16.748;2023-05-17T06:12:48;100568.05;;;11.11;73.60
72096;BME280;59968;51.084;16.748;2023-05-17T06:15:32;100568.08;;;11.19;73.86
72096;BME280;59968;51.084;16.748;2023-05-17T06:18:15;100575.77;;;11.28;73.32
72096;BME280;59968;51.084;16.748;2023-05-17T06:21:00;100579.23;;;11.35;73.18
72096;BME280;59968;51.084;16.748;2023-05-17T06:23:42;100585.77;;;11.37;71.96
72096;BME280;59968;51.084;16.748;2023-05-17T06:26:14;100586.06;;;11.39;71.60
72096;BME280;59968;51.084;16.748;2023-05-17T06:28:50;100584.48;;;11.41;71.75
72096;BME280;59968;51.084;16.748;2023-05-17T06:31:27;100580.17;;;11.42;71.73
72096;BME280;59968;51.084;16.748;2023-05-17T06:33:58;100572.01;;;11.39;71.71
72096;BME280;59968;51.084;16.748;2023-05-17T06:36:40;100581.86;;;11.49;72.17
72096;BME280;59968;51.084;16.748;2023-05-17T06:39:16;100584.30;;;11.53;71.15
72096;BME280;59968;51.084;16.748;2023-05-17T06:42:00;100585.11;;;11.49;71.43
72096;BME280;59968;51.084;16.748;2023-05-17T06:44:44;100584.10;;;11.49;71.18
72096;BME280;59968;51.084;16.748;2023-05-17T06:47:17;100583.54;;;11.47;70.55
72096;BME280;59968;51.084;16.748;2023-05-17T06:50:30;100589.55;;;11.46;71.73
72096;BME280;59968;51.084;16.748;2023-05-17T06:53:12;100599.27;;;11.50;71.55
72096;BME280;59968;51.084;16.748;2023-05-17T06:55:59;100601.75;;;11.51;71.83
72096;BME280;59968;51.084;16.748;2023-05-17T06:58:32;100605.19;;;11.47;71.50
72096;BME280;59968;51.084;16.748;2023-05-17T07:01:22;100608.23;;;11.48;72.04
72096;BME280;59968;51.084;16.748;2023-05-17T07:04:13;100611.41;;;11.54;72.53
72096;BME280;59968;51.084;16.748;2023-05-17T07:07:05;100615.44;;;11.63;72.72
72096;BME280;59968;51.084;16.748;2023-05-17T07:09:52;100618.20;;;11.71;72.22
72096;BME280;59968;51.084;16.748;2023-05-17T07:12:48;100623.91;;;11.73;71.19
72096;BME280;59968;51.084;16.748;2023-05-17T07:16:12;100627.27;;;11.74;71.39
72096;BME280;59968;51.084;16.748;2023-05-17T07:22:19;100620.13;;;11.72;70.25
72096;BME280;59968;51.084;16.748;2023-05-17T07:25:27;100622.80;;;11.70;70.60
72096;BME280;59968;51.084;16.748;2023-05-17T07:28:18;100622.92;;;11.70;70.41
72096;BME280;59968;51.084;16.748;2023-05-17T07:31:05;100626.27;;;11.70;69.79
72096;BME280;59968;51.084;16.748;2023-05-17T07:34:11;100621.97;;;11.68;69.71
72096;BME280;59968;51.084;16.748;2023-05-17T07:36:43;100621.52;;;11.65;69.39
72096;BME280;59968;51.084;16.748;2023-05-17T07:39:57;100619.27;;;11.67;70.27
72096;BME280;59968;51.084;16.748;2023-05-17T07:46:22;100630.51;;;11.75;70.02
72096;BME280;59968;51.084;16.748;2023-05-17T07:48:58;100640.98;;;11.80;70.46
72096;BME280;59968;51.084;16.748;2023-05-17T07:51:56;100644.55;;;11.86;70.51
72096;BME280;59968;51.084;16.748;2023-05-17T07:55:05;100646.73;;;11.90;70.17
72096;BME280;59968;51.084;16.748;2023-05-17T07:58:12;100650.78;;;11.97;70.75
72096;BME280;59968;51.084;16.748;2023-05-17T08:01:20;100660.08;;;12.04;69.99
72096;BME280;59968;51.084;16.748;2023-05-17T08:04:15;100658.72;;;12.04;69.56
72096;BME280;59968;51.084;16.748;2023-05-17T08:07:08;100652.77;;;12.02;69.59
72096;BME280;59968;51.084;16.748;2023-05-17T08:10:27;100653.16;;;12.01;69.71
72096;BME280;59968;51.084;16.748;2023-05-17T08:16:58;100648.19;;;11.97;68.26
72096;BME280;59968;51.084;16.748;2023-05-17T08:20:14;100649.36;;;11.87;67.92
72096;BME280;59968;51.084;16.748;2023-05-17T08:26:46;100653.11;;;11.82;69.36
72096;BME280;59968;51.084;16.748;2023-05-17T08:29:30;100653.75;;;11.86;69.67
72096;BME280;59968;51.084;16.748;2023-05-17T08:32:31;100655.73;;;11.89;69.60
72096;BME280;59968;51.084;16.748;2023-05-17T08:35:18;100654.27;;;11.91;70.20
72096;BME280;59968;51.084;16.748;2023-05-17T08:38:38;100658.36;;;11.95;70.04
72096;BME280;59968;51.084;16.748;2023-05-17T08:44:52;100656.34;;;11.97;70.48
72096;BME280;59968;51.084;16.748;2023-05-17T08:51:00;100658.52;;;11.92;69.79
72096;BME280;59968;51.084;16.748;2023-05-17T08:53:49;100656.64;;;11.93;69.76
72096;BME280;59968;51.084;16.748;2023-05-17T08:56:30;100660.36;;;11.95;69.29
72096;BME280;59968;51.084;16.748;2023-05-17T09:02:58;100659.41;;;11.89;69.06
72096;BME280;59968;51.084;16.748;2023-05-17T09:09:09;100661.80;;;12.03;70.90
72096;BME280;59968;51.084;16.748;2023-05-17T09:11:55;100661.88;;;12.03;68.77
72096;BME280;59968;51.084;16.748;2023-05-17T09:14:49;100662.48;;;12.00;68.31
72096;BME280;59968;51.084;16.748;2023-05-17T09:17:27;100662.34;;;12.01;69.64
72096;BME280;59968;51.084;16.748;2023-05-17T09:20:23;100657.70;;;12.05;68.63
72096;BME280;59968;51.084;16.748;2023-05-17T09:23:06;100658.67;;;12.15;69.39
72096;BME280;59968;51.084;16.748;2023-05-17T09:26:11;100661.63;;;12.27;68.31
72096;BME280;59968;51.084;16.748;2023-05-17T09:29:17;100658.11;;;12.35;68.02
72096;BME280;59968;51.084;16.748;2023-05-17T09:32:16;100657.84;;;12.43;67.79
72096;BME280;59968;51.084;16.748;2023-05-17T09:35:14;100652.88;;;12.52;68.22
72096;BME280;59968;51.084;16.748;2023-05-17T09:37:46;100659.09;;;12.64;68.54
72096;BME280;59968;51.084;16.748;2023-05-17T09:40:46;100654.03;;;12.78;68.38
72096;BME280;59968;51.084;16.748;2023-05-17T09:43:24;100658.26;;;12.89;67.05
72096;BME280;59968;51.084;16.748;2023-05-17T09:46:31;100664.05;;;12.98;67.60
72096;BME280;59968;51.084;16.748;2023-05-17T09:52:36;100665.45;;;13.13;66.34
72096;BME280;59968;51.084;16.748;2023-05-17T09:56:16;100664.64;;;13.14;65.05
72096;BME280;59968;51.084;16.748;2023-05-17T09:59:24;100663.17;;;13.17;64.70
72096;BME280;59968;51.084;16.748;2023-05-17T10:02:24;100658.52;;;13.16;64.98
72096;BME280;59968;51.084;16.748;2023-05-17T10:05:16;100664.14;;;13.21;65.55
72096;BME280;59968;51.084;16.748;2023-05-17T10:08:08;100668.64;;;13.26;65.60
72096;BME280;59968;51.084;16.748;2023-05-17T10:11:13;100672.45;;;13.31;65.17
72096;BME280;59968;51.084;16.748;2023-05-17T10:14:29;100674.06;;;13.36;64.65
72096;BME280;59968;51.084;16.748;2023-05-17T10:17:21;100672.27;;;13.37;63.39
72096;BME280;59968;51.084;16.748;2023-05-17T10:20:16;100678.29;;;13.33;63.57
72096;BME280;59968;51.084;16.748;2023-05-17T10:22:59;100680.52;;;13.32;63.73
72096;BME280;59968;51.084;16.748;2023-05-17T10:26:01;100675.95;;;13.34;64.55
72096;BME280;59968;51.084;16.748;2023-05-17T10:29:08;100675.57;;;13.38;63.71
72096;BME280;59968;51.084;16.748;2023-05-17T10:31:58;100681.41;;;13.39;62.90
72096;BME280;59968;51.084;16.748;2023-05-17T10:35:03;100680.62;;;13.37;64.00
72096;BME280;59968;51.084;16.748;2023-05-17T10:38:04;100683.50;;;13.41;62.94
72096;BME280;59968;51.084;16.748;2023-05-17T10:41:07;100688.25;;;13.49;64.00
72096;BME280;59968;51.084;16.748;2023-05-17T10:43:45;100675.83;;;13.53;63.77
72096;BME280;59968;51.084;16.748;2023-05-17T10:46:43;100685.10;;;13.62;62.59
72096;BME280;59968;51.084;16.748;2023-05-17T10:49:36;100685.66;;;13.60;62.47
72096;BME280;59968;51.084;16.748;2023-05-17T10:52:26;100685.61;;;13.55;62.04
72096;BME280;59968;51.084;16.748;2023-05-17T10:55:43;100683.80;;;13.52;62.60
72096;BME280;59968;51.084;16.748;2023-05-17T10:58:19;100686.09;;;13.56;63.26
72096;BME280;59968;51.084;16.748;2023-05-17T11:01:02;100684.89;;;13.61;63.10
72096;BME280;59968;51.084;16.748;2023-05-17T11:03:49;100686.83;;;13.68;63.08
72096;BME280;59968;51.084;16.748;2023-05-17T11:06:36;100656.67;;;13.62;62.88
72096;BME280;59968;51.084;16.748;2023-05-17T11:10:24;100676.65;;;13.80;62.72
72096;BME280;59968;51.084;16.748;2023-05-17T11:12:40;100682.26;;;13.85;62.01
72096;BME280;59968;51.084;16.748;2023-05-17T11:15:23;100679.65;;;13.85;61.65
72096;BME280;59968;51.084;16.748;2023-05-17T11:18:23;100676.33;;;13.85;62.40
72096;BME280;59968;51.084;16.748;2023-05-17T11:21:09;100674.31;;;13.90;62.75
72096;BME280;59968;51.084;16.748;2023-05-17T11:24:00;100675.88;;;13.95;63.12
72096;BME280;59968;51.084;16.748;2023-05-17T11:26:50;100672.98;;;13.97;63.00
72096;BME280;59968;51.084;16.748;2023-05-17T11:29:31;100678.64;;;13.99;61.87
72096;BME280;59968;51.084;16.748;2023-05-17T11:32:05;100680.56;;;13.96;61.95
72096;BME280;59968;51.084;16.748;2023-05-17T11:34:52;100683.38;;;13.99;62.61
72096;BME280;59968;51.084;16.748;2023-05-17T11:37:45;100682.45;;;13.99;62.65
72096;BME280;59968;51.084;16.748;2023-05-17T11:41:20;100681.66;;;14.00;62.41
72096;BME280;59968;51.084;16.748;2023-05-17T11:44:07;100676.63;;;14.05;62.97
72096;BME280;59968;51.084;16.748;2023-05-17T11:47:08;100668.88;;;14.08;62.78
72096;BME280;59968;51.084;16.748;2023-05-17T11:50:02;100671.97;;;14.11;62.83
72096;BME280;59968;51.084;16.748;2023-05-17T11:53:21;100672.25;;;14.11;61.55
72096;BME280;59968;51.084;16.748;2023-05-17T11:55:56;100670.57;;;14.12;62.17
72096;BME280;59968;51.084;16.748;2023-05-17T11:58:34;100671.89;;;14.11;62.46
72096;BME280;59968;51.084;16.748;2023-05-17T12:01:52;100668.30;;;14.09;62.50
72096;BME280;59968;51.084;16.748;2023-05-17T12:04:24;100669.29;;;14.08;61.34
72096;BME280;59968;51.084;16.748;2023-05-17T12:07:16;100667.95;;;14.10;62.39
72096;BME280;59968;51.084;16.748;2023-05-17T12:09:54;100662.73;;;14.11;62.91
72096;BME280;59968;51.084;16.748;2023-05-17T12:12:50;100660.33;;;14.13;62.69
72096;BME280;59968;51.084;16.748;2023-05-17T12:15:34;100662.75;;;14.13;61.91
72096;BME280;59968;51.084;16.748;2023-05-17T12:18:13;100667.00;;;14.11;62.56
72096;BME280;59968;51.084;16.748;2023-05-17T12:21:02;100668.33;;;14.11;62.18
72096;BME280;59968;51.084;16.748;2023-05-17T12:23:43;100675.45;;;14.14;62.53
72096;BME280;59968;51.084;16.748;2023-05-17T12:29:18;100670.88;;;14.20;61.57
72096;BME280;59968;51.084;16.748;2023-05-17T12:32:04;100675.38;;;14.17;60.33
72096;BME280;59968;51.084;16.748;2023-05-17T12:34:51;100682.52;;;14.14;59.60
72096;BME280;59968;51.084;16.748;2023-05-17T12:37:49;100686.29;;;14.15;59.15
72096;BME280;59968;51.084;16.748;2023-05-17T12:40:30;100678.75;;;14.15;58.44
72096;BME280;59968;51.084;16.748;2023-05-17T12:43:13;100683.80;;;14.14;58.55
72096;BME280;59968;51.084;16.748;2023-05-17T12:46:14;100686.38;;;14.14;59.39
72096;BME280;59968;51.084;16.748;2023-05-17T12:49:04;100691.39;;;14.18;59.11
72096;BME280;59968;51.084;16.748;2023-05-17T12:51:46;100696.95;;;14.23;60.27
72096;BME280;59968;51.084;16.748;2023-05-17T12:54:30;100696.35;;;14.25;59.05
72096;BME280;59968;51.084;16.748;2023-05-17T12:57:10;100704.85;;;14.24;59.23
72096;BME280;59968;51.084;16.748;2023-05-17T12:59:52;100709.83;;;14.26;59.77
72096;BME280;59968;51.084;16.748;2023-05-17T13:02:24;100711.72;;;14.26;58.79
72096;BME280;59968;51.084;16.748;2023-05-17T13:05:14;100708.83;;;14.27;59.37
72096;BME280;59968;51.084;16.748;2023-05-17T13:07:49;100705.05;;;14.26;59.02
72096;BME280;59968;51.084;16.748;2023-05-17T13:10:27;100699.11;;;14.27;58.83
72096;BME280;59968;51.084;16.748;2023-05-17T13:12:59;100695.51;;;14.25;59.09
72096;BME280;59968;51.084;16.748;2023-05-17T13:15:32;100690.09;;;14.22;59.47
72096;BME280;59968;51.084;16.748;2023-05-17T13:18:11;100694.44;;;14.23;59.65
72096;BME280;59968;51.084;16.748;2023-05-17T13:20:49;100693.30;;;14.22;59.66
72096;BME280;59968;51.084;16.748;2023-05-17T13:23:29;100702.65;;;14.25;60.84
72096;BME280;59968;51.084;16.748;2023-05-17T13:26:17;100702.41;;;14.28;60.91
72096;BME280;59968;51.084;16.748;2023-05-17T13:28:58;100696.80;;;14.28;60.06
72096;BME280;59968;51.084;16.748;2023-05-17T13:31:31;100696.11;;;14.30;60.38
72096;BME280;59968;51.084;16.748;2023-05-17T13:34:15;100700.95;;;14.36;60.73
72096;BME280;59968;51.084;16.748;2023-05-17T13:36:53;100709.85;;;14.41;59.97
72096;BME280;59968;51.084;16.748;2023-05-17T13:39:26;100711.54;;;14.42;59.55
72096;BME280;59968;51.084;16.748;2023-05-17T13:42:11;100719.04;;;14.43;58.42
72096;BME280;59968;51.084;16.748;2023-05-17T13:44:44;100722.89;;;14.42;58.59
72096;BME280;59968;51.084;16.748;2023-05-17T13:47:30;100727.59;;;14.41;58.44
72096;BME280;59968;51.084;16.748;2023-05-17T13:53:27;100727.88;;;14.41;58.68
72096;BME280;59968;51.084;16.748;2023-05-17T13:56:19;100731.81;;;14.40;58.63
72096;BME280;59968;51.084;16.748;2023-05-17T13:59:27;100739.00;;;14.41;58.67
72096;BME280;59968;51.084;16.748;2023-05-17T14:02:24;100741.45;;;14.44;58.91
72096;BME280;59968;51.084;16.748;2023-05-17T14:05:01;100743.39;;;14.43;58.90
72096;BME280;59968;51.084;16.748;2023-05-17T14:07:42;100738.17;;;14.44;59.11
72096;BME280;59968;51.084;16.748;2023-05-17T14:10:22;100734.77;;;14.45;59.49
72096;BME280;59968;51.084;16.748;2023-05-17T14:12:55;100738.78;;;14.44;58.82
72096;BME280;59968;51.084;16.748;2023-05-17T14:15:43;100741.52;;;14.44;59.60
72096;BME280;59968;51.084;16.748;2023-05-17T14:18:15;100747.58;;;14.43;58.95
72096;BME280;59968;51.084;16.748;2023-05-17T14:21:07;100751.77;;;14.38;57.97
72096;BME280;59968;51.084;16.748;2023-05-17T14:23:44;100755.78;;;14.36;58.65
72096;BME280;59968;51.084;16.748;2023-05-17T14:26:16;100757.34;;;14.40;59.15
72096;BME280;59968;51.084;16.748;2023-05-17T14:28:56;100759.95;;;14.44;58.50
72096;BME280;59968;51.084;16.748;2023-05-17T14:31:25;100760.86;;;14.47;59.45
72096;BME280;59968;51.084;16.748;2023-05-17T14:33:58;100767.61;;;14.52;58.66
72096;BME280;59968;51.084;16.748;2023-05-17T14:36:31;100766.84;;;14.53;57.95
72096;BME280;59968;51.084;16.748;2023-05-17T14:39:07;100768.85;;;14.53;58.89
72096;BME280;59968;51.084;16.748;2023-05-17T14:41:39;100772.30;;;14.56;58.73
72096;BME280;59968;51.084;16.748;2023-05-17T14:44:13;100768.33;;;14.57;57.65
72096;BME280;59968;51.084;16.748;2023-05-17T14:46:42;100768.12;;;14.56;57.99
72096;BME280;59968;51.084;16.748;2023-05-17T14:49:11;100769.60;;;14.58;58.40
72096;BME280;59968;51.084;16.748;2023-05-17T14:51:44;100768.52;;;14.62;58.47
72096;BME280;59968;51.084;16.748;2023-05-17T14:54:13;100763.19;;;14.63;58.48
72096;BME280;59968;51.084;16.748;2023-05-17T14:56:45;100763.45;;;14.66;58.37
72096;BME280;59968;51.084;16.748;2023-05-17T14:59:16;100765.30;;;14.63;57.75
72096;BME280;59968;51.084;16.748;2023-05-17T15:01:46;100765.79;;;14.60;58.55
72096;BME280;59968;51.084;16.748;2023-05-17T15:04:18;100768.04;;;14.62;58.32
72096;BME280;59968;51.084;16.748;2023-05-17T15:06:47;100765.86;;;14.64;58.16
72096;BME280;59968;51.084;16.748;2023-05-17T15:09:17;100766.79;;;14.63;58.29
72096;BME280;59968;51.084;16.748;2023-05-17T15:11:47;100771.36;;;14.63;58.42
72096;BME280;59968;51.084;16.748;2023-05-17T15:14:19;100771.05;;;14.61;58.62
72096;BME280;59968;51.084;16.748;2023-05-17T15:16:51;100781.50;;;14.60;58.44
72096;BME280;59968;51.084;16.748;2023-05-17T15:19:20;100782.33;;;14.59;58.29
72096;BME280;59968;51.084;16.748;2023-05-17T15:21:49;100787.79;;;14.64;58.35
72096;BME280;59968;51.084;16.748;2023-05-17T15:24:19;100793.25;;;14.63;58.43
72096;BME280;59968;51.084;16.748;2023-05-17T15:26:48;100793.70;;;14.61;58.31
72096;BME280;59968;51.084;16.748;2023-05-17T15:29:17;100793.42;;;14.61;58.13
72096;BME280;59968;51.084;16.748;2023-05-17T15:31:57;100793.27;;;14.57;57.66
72096;BME280;59968;51.084;16.748;2023-05-17T15:34:48;100797.13;;;14.50;58.30
72096;BME280;59968;51.084;16.748;2023-05-17T15:37:32;100795.34;;;14.45;58.77
72096;BME280;59968;51.084;16.748;2023-05-17T15:40:12;100795.37;;;14.42;58.23
72096;BME280;59968;51.084;16.748;2023-05-17T15:42:42;100797.13;;;14.38;57.91
72096;BME280;59968;51.084;16.748;2023-05-17T15:45:20;100800.46;;;14.34;58.36
72096;BME280;59968;51.084;16.748;2023-05-17T15:47:57;100803.45;;;14.33;57.96
72096;BME280;59968;51.084;16.748;2023-05-17T15:50:29;100802.70;;;14.30;57.81
72096;BME280;59968;51.084;16.748;2023-05-17T15:53:11;100802.91;;;14.30;58.28
72096;BME280;59968;51.084;16.748;2023-05-17T15:55:43;100806.23;;;14.31;58.63
72096;BME280;59968;51.084;16.748;2023-05-17T15:58:20;100808.37;;;14.34;58.69
72096;BME280;59968;51.084;16.748;2023-05-17T16:00:53;100810.38;;;14.34;58.15
72096;BME280;59968;51.084;16.748;2023-05-17T16:03:22;100811.02;;;14.36;58.15
72096;BME280;59968;51.084;16.748;2023-05-17T16:05:55;100810.98;;;14.38;58.02
72096;BME280;59968;51.084;16.748;2023-05-17T16:08:30;100811.38;;;14.40;57.90
72096;BME280;59968;51.084;16.748;2023-05-17T16:11:02;100809.65;;;14.40;58.10
72096;BME280;59968;51.084;16.748;2023-05-17T16:13:39;100816.92;;;14.39;58.12
72096;BME280;59968;51.084;16.748;2023-05-17T16:16:09;100821.61;;;14.36;55.96